Time,TemperatureF,DewpointF,PressureIn,WindDirection,WindDirectionDegrees,WindSpeedMPH,WindSpeedGustMPH,Humidity,HourlyPrecipIn,Conditions,Clouds,dailyrainin,SolarRadiationWatts/m^2,SoftwareType,DateUTC
2013-04-01 00:12:00,34.0,30.0,-100.00,SW,232,3.0,8.0,86,0.00,,,0.32,1.000000,,2013-04-01 07:12:00,
2013-04-01 00:22:00,34.0,30.0,-100.00,SW,232,3.0,8.0,86,0.00,,,0.32,1.000000,,2013-04-01 07:22:00,
2013-04-01 00:32:00,34.0,30.0,-100.00,SW,232,3.0,8.0,86,0.00,,,0.32,1.000000,,2013-04-01 07:32:00,
2013-04-01 00:42:00,34.0,30.0,-100.00,SW,232,3.0,8.0,86,0.00,,,0.32,1.000000,,2013-04-01 07:42:00,
2013-04-01 00:51:00,34.0,30.0,-100.00,SE,140,3.0,10.0,85,0.00,,,0.32,1.000000,,2013-04-01 07:51:00,
2013-04-01 01:12:00,34.0,30.0,-100.00,SE,140,3.0,10.0,85,0.00,,,0.32,1.000000,,2013-04-01 08:12:00,
2013-04-01 01:22:00,34.0,30.0,-100.00,SE,140,3.0,10.0,85,0.00,,,0.32,1.000000,,2013-04-01 08:22:00,
2013-04-01 01:32:00,34.0,30.0,-100.00,SE,140,3.0,10.0,85,0.00,,,0.32,1.000000,,2013-04-01 08:32:00,
2013-04-01 01:43:00,34.0,30.0,-100.00,SE,140,3.0,10.0,85,0.00,,,0.32,1.000000,,2013-04-01 08:43:00,
2013-04-01 01:51:00,34.0,31.0,-100.00,SSW,192,1.0,7.0,90,0.00,,,0.32,1.000000,,2013-04-01 08:51:00,
2013-04-01 02:12:00,34.0,31.0,-100.00,SSW,192,1.0,7.0,90,0.00,,,0.32,1.000000,,2013-04-01 09:12:00,
2013-04-01 02:22:00,34.0,31.0,-100.00,SSW,192,1.0,7.0,90,0.00,,,0.32,1.000000,,2013-04-01 09:22:00,
2013-04-01 02:33:00,34.0,31.0,-100.00,SSW,192,1.0,7.0,90,0.00,,,0.32,1.000000,,2013-04-01 09:33:00,
2013-04-01 02:42:00,34.0,31.0,-100.00,SSW,192,1.0,7.0,90,0.00,,,0.32,1.000000,,2013-04-01 09:42:00,
2013-04-01 02:51:00,33.0,31.0,-100.00,SSE,165,3.0,5.0,91,0.00,,,0.32,1.000000,,2013-04-01 09:51:00,
2013-04-01 03:12:00,33.0,31.0,-100.00,SSE,165,3.0,5.0,91,0.00,,,0.32,1.000000,,2013-04-01 10:12:00,
2013-04-01 03:23:00,33.0,31.0,-100.00,SSE,165,3.0,5.0,91,0.00,,,0.32,1.000000,,2013-04-01 10:23:00,
2013-04-01 03:33:00,33.0,31.0,-100.00,SSE,165,3.0,5.0,91,0.00,,,0.32,1.000000,,2013-04-01 10:33:00,
2013-04-01 03:42:00,33.0,31.0,-100.00,SSE,165,3.0,5.0,91,0.00,,,0.32,1.000000,,2013-04-01 10:42:00,
2013-04-01 03:51:00,33.0,31.0,-100.00,SSE,162,3.0,7.0,93,0.00,,,0.23,1.000000,,2013-04-01 10:51:00,
2013-04-01 04:12:00,33.0,31.0,-100.00,SSE,162,3.0,7.0,93,0.00,,,0.23,1.000000,,2013-04-01 11:12:00,
2013-04-01 04:22:00,33.0,31.0,-100.00,SSE,162,3.0,7.0,93,0.00,,,0.23,1.000000,,2013-04-01 11:22:00,
2013-04-01 04:32:00,33.0,31.0,-100.00,SSE,162,3.0,7.0,93,0.00,,,0.23,1.000000,,2013-04-01 11:32:00,
2013-04-01 04:42:00,33.0,31.0,-100.00,SSE,162,3.0,7.0,93,0.00,,,0.23,1.000000,,2013-04-01 11:42:00,
2013-04-01 05:51:00,32.0,30.0,-100.00,South,191,0.0,2.0,94,0.00,,,0.10,1.000000,,2013-04-01 12:51:00,
2013-04-01 06:12:00,32.0,30.0,-100.00,South,191,0.0,2.0,94,0.00,,,0.10,1.000000,,2013-04-01 13:12:00,
2013-04-01 06:22:00,32.0,30.0,-100.00,South,191,0.0,2.0,94,0.00,,,0.10,1.000000,,2013-04-01 13:22:00,
2013-04-01 06:32:00,32.0,30.0,-100.00,South,191,0.0,2.0,94,0.00,,,0.10,1.000000,,2013-04-01 13:32:00,
2013-04-01 06:42:00,32.0,30.0,-100.00,South,191,0.0,2.0,94,0.00,,,0.10,1.000000,,2013-04-01 13:42:00,
2013-04-01 06:51:00,32.0,30.0,-100.00,SSW,198,2.0,5.0,94,0.00,,,0.07,1.000000,,2013-04-01 13:51:00,
2013-04-01 07:22:00,32.0,30.0,-100.00,SSW,198,2.0,5.0,94,0.00,,,0.07,1.000000,,2013-04-01 14:22:00,
2013-04-01 07:32:00,32.0,30.0,-100.00,SSW,198,2.0,5.0,94,0.00,,,0.07,1.000000,,2013-04-01 14:32:00,
2013-04-01 07:42:00,32.0,30.0,-100.00,SSW,198,2.0,5.0,94,0.00,,,0.07,1.000000,,2013-04-01 14:42:00,
2013-04-01 07:51:00,35.0,31.0,-100.00,South,179,2.0,6.0,86,0.00,,,0.04,11.000000,,2013-04-01 14:51:00,
2013-04-01 08:13:00,35.0,31.0,-100.00,South,179,2.0,6.0,86,0.00,,,0.04,11.000000,,2013-04-01 15:13:00,
2013-04-01 08:22:00,35.0,31.0,-100.00,South,179,2.0,6.0,86,0.00,,,0.04,11.000000,,2013-04-01 15:22:00,
2013-04-01 08:33:00,35.0,31.0,-100.00,South,179,2.0,6.0,86,0.00,,,0.04,11.000000,,2013-04-01 15:33:00,
2013-04-01 08:43:00,35.0,31.0,-100.00,South,179,2.0,6.0,86,0.00,,,0.04,11.000000,,2013-04-01 15:43:00,
2013-04-01 08:51:00,35.0,29.0,-100.00,SSE,151,5.0,13.0,80,0.00,,,-99.99,24.000000,,2013-04-01 15:51:00,
2013-04-01 09:23:00,35.0,29.0,-100.00,SSE,151,5.0,13.0,80,0.00,,,-99.99,24.000000,,2013-04-01 16:23:00,
2013-04-01 09:33:00,35.0,29.0,-100.00,SSE,151,5.0,13.0,80,0.00,,,-99.99,24.000000,,2013-04-01 16:33:00,
2013-04-01 09:42:00,35.0,29.0,-100.00,SSE,151,5.0,13.0,80,0.00,,,-99.99,24.000000,,2013-04-01 16:42:00,
2013-04-01 10:51:00,41.0,32.0,-100.00,South,187,4.0,9.0,71,-99.99,,,0.23,439.000000,,2013-04-01 17:51:00,
2013-04-01 11:12:00,41.0,32.0,-100.00,South,187,4.0,9.0,71,-99.99,,,0.23,439.000000,,2013-04-01 18:12:00,
2013-04-01 11:22:00,41.0,32.0,-100.00,South,187,4.0,9.0,71,-99.99,,,0.23,439.000000,,2013-04-01 18:22:00,
2013-04-01 11:32:00,41.0,32.0,-100.00,South,187,4.0,9.0,71,-99.99,,,0.23,439.000000,,2013-04-01 18:32:00,
2013-04-01 11:42:00,41.0,32.0,-100.00,South,187,4.0,9.0,71,-99.99,,,0.23,439.000000,,2013-04-01 18:42:00,
2013-04-01 11:51:00,42.0,33.0,-100.00,SSE,149,4.0,9.0,71,0.00,,,0.23,493.000000,,2013-04-01 18:51:00,
2013-04-01 12:12:00,42.0,33.0,-100.00,SSE,149,4.0,9.0,71,0.00,,,0.23,493.000000,,2013-04-01 19:12:00,
2013-04-01 12:23:00,42.0,33.0,-100.00,SSE,149,4.0,9.0,71,0.00,,,0.23,493.000000,,2013-04-01 19:23:00,
2013-04-01 12:32:00,42.0,33.0,-100.00,SSE,149,4.0,9.0,71,0.00,,,0.23,493.000000,,2013-04-01 19:32:00,
2013-04-01 12:42:00,42.0,33.0,-100.00,SSE,149,4.0,9.0,71,0.00,,,0.23,493.000000,,2013-04-01 19:42:00,
2013-04-01 12:51:00,46.0,35.0,-100.00,SSW,202,5.0,13.0,65,0.00,,,0.23,900.000000,,2013-04-01 19:51:00,
2013-04-01 13:22:00,46.0,35.0,-100.00,SSW,202,5.0,13.0,65,0.00,,,0.23,900.000000,,2013-04-01 20:22:00,
2013-04-01 13:32:00,46.0,35.0,-100.00,SSW,202,5.0,13.0,65,0.00,,,0.23,900.000000,,2013-04-01 20:32:00,
2013-04-01 13:42:00,46.0,35.0,-100.00,SSW,202,5.0,13.0,65,0.00,,,0.23,900.000000,,2013-04-01 20:42:00,
2013-04-01 13:51:00,47.0,33.0,-100.00,South,185,5.0,13.0,58,0.00,,,0.23,795.000000,,2013-04-01 20:51:00,
2013-04-01 14:22:00,47.0,33.0,-100.00,South,185,5.0,13.0,58,0.00,,,0.23,795.000000,,2013-04-01 21:22:00,
2013-04-01 14:32:00,47.0,33.0,-100.00,South,185,5.0,13.0,58,0.00,,,0.23,795.000000,,2013-04-01 21:32:00,
2013-04-01 14:43:00,47.0,33.0,-100.00,South,185,5.0,13.0,58,0.00,,,0.23,795.000000,,2013-04-01 21:43:00,
2013-04-01 14:51:00,48.0,34.0,-100.00,SSW,211,6.0,14.0,59,0.00,,,0.23,905.000000,,2013-04-01 21:51:00,
2013-04-01 15:12:00,48.0,34.0,-100.00,SSW,211,6.0,14.0,59,0.00,,,0.23,905.000000,,2013-04-01 22:12:00,
2013-04-01 15:22:00,48.0,34.0,-100.00,SSW,211,6.0,14.0,59,0.00,,,0.23,905.000000,,2013-04-01 22:22:00,
2013-04-01 15:33:00,48.0,34.0,-100.00,SSW,211,6.0,14.0,59,0.00,,,0.23,905.000000,,2013-04-01 22:33:00,
2013-04-01 15:42:00,48.0,34.0,-100.00,SSW,211,6.0,14.0,59,0.00,,,0.23,905.000000,,2013-04-01 22:42:00,
2013-04-01 15:51:00,47.0,31.0,-100.00,SSE,152,6.0,12.0,54,0.00,,,0.22,986.000000,,2013-04-01 22:51:00,
2013-04-01 16:22:00,47.0,31.0,-100.00,SSE,152,6.0,12.0,54,0.00,,,0.22,986.000000,,2013-04-01 23:22:00,
2013-04-01 16:32:00,47.0,31.0,-100.00,SSE,152,6.0,12.0,54,0.00,,,0.22,986.000000,,2013-04-01 23:32:00,
2013-04-01 16:42:00,47.0,31.0,-100.00,SSE,152,6.0,12.0,54,0.00,,,0.22,986.000000,,2013-04-01 23:42:00,
2013-04-01 16:51:00,48.0,32.0,-100.00,SW,226,4.0,10.0,54,0.00,,,0.22,526.000000,,2013-04-01 23:51:00,
2013-04-01 17:12:00,48.0,32.0,-100.00,SW,226,4.0,10.0,54,0.00,,,0.22,526.000000,,2013-04-02 00:12:00,
2013-04-01 17:22:00,48.0,32.0,-100.00,SW,226,4.0,10.0,54,0.00,,,0.22,526.000000,,2013-04-02 00:22:00,
2013-04-01 17:32:00,48.0,32.0,-100.00,SW,226,4.0,10.0,54,0.00,,,0.22,526.000000,,2013-04-02 00:32:00,
2013-04-01 17:42:00,48.0,32.0,-100.00,SW,226,4.0,10.0,54,0.00,,,0.22,526.000000,,2013-04-02 00:42:00,
2013-04-01 17:51:00,42.0,32.0,-100.00,South,177,4.0,9.0,67,0.00,,,0.19,173.000000,,2013-04-02 00:51:00,
2013-04-01 18:12:00,42.0,32.0,-100.00,South,177,4.0,9.0,67,0.00,,,0.19,173.000000,,2013-04-02 01:12:00,
2013-04-01 18:22:00,42.0,32.0,-100.00,South,177,4.0,9.0,67,0.00,,,0.19,173.000000,,2013-04-02 01:22:00,
2013-04-01 18:32:00,42.0,32.0,-100.00,South,177,4.0,9.0,67,0.00,,,0.19,173.000000,,2013-04-02 01:32:00,
2013-04-01 18:42:00,42.0,32.0,-100.00,South,177,4.0,9.0,67,0.00,,,0.19,173.000000,,2013-04-02 01:42:00,
2013-04-01 18:51:00,40.0,33.0,-100.00,SSE,165,3.0,9.0,75,0.00,,,0.19,73.000000,,2013-04-02 01:51:00,
2013-04-01 19:22:00,40.0,33.0,-100.00,SSE,165,3.0,9.0,75,0.00,,,0.19,73.000000,,2013-04-02 02:22:00,
2013-04-01 19:32:00,40.0,33.0,-100.00,SSE,165,3.0,9.0,75,0.00,,,0.19,73.000000,,2013-04-02 02:32:00,
2013-04-01 19:42:00,40.0,33.0,-100.00,SSE,165,3.0,9.0,75,0.00,,,0.19,73.000000,,2013-04-02 02:42:00,
2013-04-01 19:51:00,37.0,31.0,-100.00,SSE,163,4.0,10.0,78,0.00,,,0.19,9.000000,,2013-04-02 02:51:00,
2013-04-01 20:12:00,37.0,31.0,-100.00,SSE,163,4.0,10.0,78,0.00,,,0.19,9.000000,,2013-04-02 03:12:00,
2013-04-01 20:22:00,37.0,31.0,-100.00,SSE,163,4.0,10.0,78,0.00,,,0.19,9.000000,,2013-04-02 03:22:00,
2013-04-01 20:33:00,37.0,31.0,-100.00,SSE,163,4.0,10.0,78,0.00,,,0.19,9.000000,,2013-04-02 03:33:00,
2013-04-01 20:43:00,37.0,31.0,-100.00,SSE,163,4.0,10.0,78,0.00,,,0.19,9.000000,,2013-04-02 03:43:00,
2013-04-01 20:51:00,35.0,30.0,-100.00,SSW,212,2.0,9.0,83,0.00,,,0.19,1.000000,,2013-04-02 03:51:00,
2013-04-01 21:22:00,35.0,30.0,-100.00,SSW,212,2.0,9.0,83,0.00,,,0.19,1.000000,,2013-04-02 04:22:00,
2013-04-01 21:32:00,35.0,30.0,-100.00,SSW,212,2.0,9.0,83,0.00,,,0.19,1.000000,,2013-04-02 04:32:00,
2013-04-01 21:42:00,35.0,30.0,-100.00,SSW,212,2.0,9.0,83,0.00,,,0.19,1.000000,,2013-04-02 04:42:00,
2013-04-01 21:51:00,32.0,29.0,-100.00,NNW,336,0.0,3.0,90,0.00,,,0.19,1.000000,,2013-04-02 04:51:00,
2013-04-01 22:22:00,32.0,29.0,-100.00,NNW,336,0.0,3.0,90,0.00,,,0.19,1.000000,,2013-04-02 05:22:00,
2013-04-01 22:32:00,32.0,29.0,-100.00,NNW,336,0.0,3.0,90,0.00,,,0.19,1.000000,,2013-04-02 05:32:00,
2013-04-01 22:42:00,32.0,29.0,-100.00,NNW,336,0.0,3.0,90,0.00,,,0.19,1.000000,,2013-04-02 05:42:00,
2013-04-01 22:51:00,29.0,27.0,-100.00,ENE,65,1.0,2.0,93,0.00,,,0.19,1.000000,,2013-04-02 05:51:00,
2013-04-01 23:12:00,29.0,27.0,-100.00,ENE,65,1.0,2.0,93,0.00,,,0.19,1.000000,,2013-04-02 06:12:00,
2013-04-01 23:22:00,29.0,27.0,-100.00,ENE,65,1.0,2.0,93,0.00,,,0.19,1.000000,,2013-04-02 06:22:00,
2013-04-01 23:32:00,29.0,27.0,-100.00,ENE,65,1.0,2.0,93,0.00,,,0.19,1.000000,,2013-04-02 06:32:00,
2013-04-01 23:42:00,29.0,27.0,-100.00,ENE,65,1.0,2.0,93,0.00,,,0.19,1.000000,,2013-04-02 06:42:00,
2013-04-01 23:51:00,28.0,26.0,-100.00,WNW,295,0.0,0.0,93,0.00,,,0.19,1.000000,,2013-04-02 06:51:00,